QTR46Q OTHH-OPLA
Flight info
| Callsign | QTR46Q |
|---|---|
| Flight time | 2h 54m |
| Altitude | 35000 |
| Route | KUPRO N300 NOLSU P307 TONVO/N0485F410 A777 NADSO B505 PG/N0493F390 G214 VEREN |
| Aircraft | A359/H-SDE2E3GHIJ3J4J5LM1ORWXY/LB1D1 |
Departure
| Time | 2026-05-07 08:31 |
|---|---|
| Airport | Hamad International Airport (OTHH) |
Arrival
| Time | 2026-05-07 11:25 |
|---|---|
| Airport | Allama Iqbal International Airport (OPLA) |
| Time | Latitude | Longitude | Altitude | Speed | Heading |
|---|---|---|---|---|---|
| 2026-05-07 08:16 | 25.26875 | 51.61295 | 28 ft | 0 kts | 293° |
| 2026-05-07 08:19 | 25.26875 | 51.61297 | 28 ft | 2 kts | 293° |
| 2026-05-07 08:19 | 25.26868 | 51.61315 | 27 ft | 3 kts | 296° |
| 2026-05-07 08:19 | 25.26858 | 51.61335 | 27 ft | 3 kts | 306° |
| 2026-05-07 08:19 | 25.26844 | 51.61351 | 27 ft | 2 kts | 325° |
| 2026-05-07 08:20 | 25.26827 | 51.61361 | 26 ft | 3 kts | 345° |
| 2026-05-07 08:20 | 25.26809 | 51.61365 | 26 ft | 3 kts | 355° |
| 2026-05-07 08:20 | 25.26790 | 51.61364 | 27 ft | 3 kts | 14° |
| 2026-05-07 08:20 | 25.26780 | 51.61361 | 27 ft | 3 kts | 20° |
| 2026-05-07 08:21 | 25.26778 | 51.61361 | 27 ft | 0 kts | 23° |
| 2026-05-07 08:23 | 25.26820 | 51.61382 | 28 ft | 10 kts | 23° |
| 2026-05-07 08:24 | 25.26891 | 51.61416 | 28 ft | 12 kts | 23° |
| 2026-05-07 08:24 | 25.26975 | 51.61452 | 28 ft | 14 kts | 20° |
| 2026-05-07 08:24 | 25.27008 | 51.61501 | 28 ft | 8 kts | 67° |
| 2026-05-07 08:24 | 25.27031 | 51.61563 | 28 ft | 10 kts | 70° |
| 2026-05-07 08:25 | 25.27059 | 51.61640 | 28 ft | 12 kts | 67° |
| 2026-05-07 08:25 | 25.27057 | 51.61711 | 28 ft | 8 kts | 138° |
| 2026-05-07 08:25 | 25.26998 | 51.61742 | 28 ft | 10 kts | 158° |
| 2026-05-07 08:25 | 25.26922 | 51.61776 | 28 ft | 13 kts | 158° |
| 2026-05-07 08:26 | 25.26727 | 51.61864 | 28 ft | 17 kts | 158° |
| 2026-05-07 08:26 | 25.26610 | 51.61916 | 28 ft | 19 kts | 158° |
| 2026-05-07 08:26 | 25.26481 | 51.61972 | 28 ft | 20 kts | 158° |
| 2026-05-07 08:27 | 25.26345 | 51.62030 | 29 ft | 22 kts | 159° |
| 2026-05-07 08:27 | 25.26200 | 51.62091 | 29 ft | 23 kts | 159° |
| 2026-05-07 08:27 | 25.26043 | 51.62161 | 29 ft | 25 kts | 155° |
| 2026-05-07 08:27 | 25.25884 | 51.62234 | 29 ft | 25 kts | 158° |
| 2026-05-07 08:28 | 25.25729 | 51.62303 | 29 ft | 24 kts | 158° |
| 2026-05-07 08:28 | 25.25589 | 51.62368 | 28 ft | 14 kts | 145° |
| 2026-05-07 08:28 | 25.25589 | 51.62463 | 28 ft | 14 kts | 69° |
| 2026-05-07 08:28 | 25.25604 | 51.62507 | 28 ft | 0 kts | 69° |
| 2026-05-07 08:29 | 25.25613 | 51.62530 | 28 ft | 7 kts | 67° |
| 2026-05-07 08:29 | 25.25637 | 51.62583 | 28 ft | 9 kts | 66° |
| 2026-05-07 08:29 | 25.25667 | 51.62638 | 29 ft | 7 kts | 31° |
| 2026-05-07 08:30 | 25.25695 | 51.62631 | 29 ft | 0 kts | 337° |
| 2026-05-07 08:30 | 25.25744 | 51.62609 | 28 ft | 24 kts | 338° |
| 2026-05-07 08:30 | 25.26093 | 51.62455 | 29 ft | 89 kts | 338° |
| 2026-05-07 08:30 | 25.26871 | 51.62111 | 31 ft | 150 kts | 338° |
| 2026-05-07 08:31 | 25.27951 | 51.61647 | 430 ft | 171 kts | 338° |
| 2026-05-07 08:31 | 25.29068 | 51.61159 | 1234 ft | 172 kts | 338° |
| 2026-05-07 08:31 | 25.30198 | 51.60706 | 2124 ft | 179 kts | 340° |
| 2026-05-07 08:31 | 25.31430 | 51.60148 | 2531 ft | 205 kts | 339° |
| 2026-05-07 08:32 | 25.32852 | 51.59782 | 3048 ft | 215 kts | 8° |
| 2026-05-07 08:32 | 25.34226 | 51.60463 | 3640 ft | 228 kts | 44° |
| 2026-05-07 08:32 | 25.35046 | 51.62050 | 3954 ft | 257 kts | 75° |
| 2026-05-07 08:32 | 25.35404 | 51.64145 | 4010 ft | 298 kts | 79° |
| 2026-05-07 08:33 | 25.35901 | 51.66524 | 4006 ft | 337 kts | 74° |
| 2026-05-07 08:33 | 25.36568 | 51.69105 | 3997 ft | 371 kts | 77° |
| 2026-05-07 08:33 | 25.36681 | 51.71978 | 3981 ft | 369 kts | 97° |
| 2026-05-07 08:33 | 25.36163 | 51.74651 | 3996 ft | 344 kts | 103° |
| 2026-05-07 08:34 | 25.35597 | 51.77126 | 3989 ft | 320 kts | 103° |
| 2026-05-07 08:34 | 25.35086 | 51.79439 | 3989 ft | 299 kts | 102° |
| 2026-05-07 08:34 | 25.34625 | 51.81601 | 3987 ft | 280 kts | 102° |
| 2026-05-07 08:34 | 25.34200 | 51.83643 | 3990 ft | 269 kts | 102° |
| 2026-05-07 08:35 | 25.33787 | 51.85658 | 3995 ft | 269 kts | 102° |
| 2026-05-07 08:35 | 25.33371 | 51.87681 | 4088 ft | 271 kts | 102° |
| 2026-05-07 08:35 | 25.32957 | 51.89725 | 4518 ft | 274 kts | 102° |
| 2026-05-07 08:35 | 25.32542 | 51.91783 | 5129 ft | 274 kts | 102° |
| 2026-05-07 08:36 | 25.32263 | 51.93174 | 5550 ft | 275 kts | 102° |
| 2026-05-07 08:36 | 25.31711 | 51.95928 | 6305 ft | 279 kts | 102° |
| 2026-05-07 08:36 | 25.31427 | 51.97342 | 6659 ft | 280 kts | 102° |
| 2026-05-07 08:36 | 25.31005 | 51.99451 | 7193 ft | 283 kts | 102° |
| 2026-05-07 08:37 | 25.30578 | 52.01583 | 7725 ft | 285 kts | 101° |
| 2026-05-07 08:37 | 25.30154 | 52.03700 | 8269 ft | 287 kts | 101° |
| 2026-05-07 08:37 | 25.29721 | 52.05866 | 8800 ft | 290 kts | 101° |
| 2026-05-07 08:37 | 25.29283 | 52.08050 | 9340 ft | 292 kts | 101° |
| 2026-05-07 08:38 | 25.28769 | 52.10235 | 9900 ft | 296 kts | 105° |
| 2026-05-07 08:38 | 25.28129 | 52.12410 | 10301 ft | 303 kts | 107° |
| 2026-05-07 08:38 | 25.27434 | 52.14660 | 10544 ft | 315 kts | 107° |
| 2026-05-07 08:38 | 25.26703 | 52.16993 | 10761 ft | 328 kts | 108° |
| 2026-05-07 08:39 | 25.25940 | 52.19410 | 10976 ft | 339 kts | 108° |
| 2026-05-07 08:39 | 25.25146 | 52.21911 | 11191 ft | 350 kts | 108° |
| 2026-05-07 08:39 | 25.24326 | 52.24479 | 11384 ft | 359 kts | 109° |
| 2026-05-07 08:39 | 25.23489 | 52.27106 | 11680 ft | 365 kts | 109° |
| 2026-05-07 08:40 | 25.22647 | 52.29759 | 12069 ft | 367 kts | 109° |
| 2026-05-07 08:40 | 25.21803 | 52.32420 | 12530 ft | 367 kts | 109° |
| 2026-05-07 08:40 | 25.20959 | 52.35085 | 12963 ft | 368 kts | 109° |
| 2026-05-07 08:40 | 25.20114 | 52.37754 | 13392 ft | 368 kts | 109° |
| 2026-05-07 08:41 | 25.19269 | 52.40420 | 13832 ft | 368 kts | 109° |
| 2026-05-07 08:41 | 25.18421 | 52.43095 | 14150 ft | 371 kts | 110° |
| 2026-05-07 08:41 | 25.17563 | 52.45799 | 14452 ft | 374 kts | 110° |
| 2026-05-07 08:41 | 25.16700 | 52.48516 | 14782 ft | 377 kts | 110° |
| 2026-05-07 08:42 | 25.15830 | 52.51256 | 15091 ft | 380 kts | 110° |
| 2026-05-07 08:42 | 25.14952 | 52.54017 | 15419 ft | 382 kts | 110° |
| 2026-05-07 08:42 | 25.14068 | 52.56795 | 15748 ft | 385 kts | 110° |
| 2026-05-07 08:42 | 25.13093 | 52.59549 | 16078 ft | 387 kts | 114° |
| 2026-05-07 08:43 | 25.11972 | 52.62261 | 16401 ft | 390 kts | 116° |
| 2026-05-07 08:43 | 25.10771 | 52.64950 | 16730 ft | 392 kts | 117° |
| 2026-05-07 08:43 | 25.09528 | 52.67635 | 17056 ft | 395 kts | 118° |
| 2026-05-07 08:43 | 25.08266 | 52.70334 | 17375 ft | 398 kts | 118° |
| 2026-05-07 08:44 | 25.06997 | 52.73057 | 17680 ft | 401 kts | 118° |
| 2026-05-07 08:44 | 25.05849 | 52.75870 | 18000 ft | 404 kts | 111° |
| 2026-05-07 08:44 | 25.04972 | 52.78828 | 18290 ft | 407 kts | 108° |
| 2026-05-07 08:44 | 25.04200 | 52.81840 | 18577 ft | 410 kts | 106° |
| 2026-05-07 08:45 | 25.03491 | 52.84895 | 18850 ft | 412 kts | 105° |
| 2026-05-07 08:45 | 25.02813 | 52.87976 | 19141 ft | 414 kts | 104° |
| 2026-05-07 08:45 | 25.02141 | 52.91076 | 19428 ft | 417 kts | 104° |
| 2026-05-07 08:45 | 25.01471 | 52.94146 | 19699 ft | 419 kts | 104° |
| 2026-05-07 08:46 | 25.00768 | 52.97316 | 19984 ft | 421 kts | 105° |
| 2026-05-07 08:46 | 25.00075 | 53.00409 | 20256 ft | 423 kts | 105° |
| 2026-05-07 08:46 | 24.99360 | 53.03566 | 20514 ft | 425 kts | 105° |
| 2026-05-07 08:46 | 24.98638 | 53.06735 | 20777 ft | 428 kts | 105° |
| 2026-05-07 08:47 | 24.97907 | 53.09924 | 21045 ft | 430 kts | 105° |
| 2026-05-07 08:47 | 24.97172 | 53.13119 | 21311 ft | 432 kts | 105° |
| 2026-05-07 08:47 | 24.96430 | 53.16336 | 21591 ft | 434 kts | 105° |
| 2026-05-07 08:47 | 24.95685 | 53.19567 | 21822 ft | 436 kts | 105° |
| 2026-05-07 08:48 | 24.94935 | 53.22814 | 22085 ft | 438 kts | 105° |
| 2026-05-07 08:48 | 24.94184 | 53.26067 | 22341 ft | 440 kts | 105° |
| 2026-05-07 08:48 | 24.93427 | 53.29344 | 22588 ft | 442 kts | 105° |
| 2026-05-07 08:48 | 24.92667 | 53.32630 | 22826 ft | 444 kts | 105° |
| 2026-05-07 08:49 | 24.91904 | 53.35928 | 23074 ft | 446 kts | 105° |
| 2026-05-07 08:49 | 24.91135 | 53.39246 | 23312 ft | 448 kts | 105° |
| 2026-05-07 08:49 | 24.90342 | 53.42569 | 23517 ft | 450 kts | 106° |
| 2026-05-07 08:49 | 24.89480 | 53.45892 | 23706 ft | 452 kts | 107° |
| 2026-05-07 08:50 | 24.88574 | 53.49208 | 23876 ft | 454 kts | 108° |
| 2026-05-07 08:50 | 24.87646 | 53.52537 | 24063 ft | 456 kts | 108° |
| 2026-05-07 08:50 | 24.86711 | 53.55877 | 24248 ft | 458 kts | 108° |
| 2026-05-07 08:50 | 24.85775 | 53.59235 | 24427 ft | 460 kts | 108° |
| 2026-05-07 08:51 | 24.84839 | 53.62614 | 24623 ft | 462 kts | 108° |
| 2026-05-07 08:51 | 24.83905 | 53.65998 | 24793 ft | 464 kts | 108° |
| 2026-05-07 08:51 | 24.82968 | 53.69398 | 24978 ft | 466 kts | 108° |
| 2026-05-07 08:51 | 24.82027 | 53.72824 | 25141 ft | 468 kts | 108° |
| 2026-05-07 08:52 | 24.81085 | 53.76252 | 25331 ft | 470 kts | 108° |
| 2026-05-07 08:52 | 24.80138 | 53.79700 | 25514 ft | 471 kts | 108° |
| 2026-05-07 08:52 | 24.79187 | 53.83153 | 25692 ft | 473 kts | 108° |
| 2026-05-07 08:52 | 24.78241 | 53.86587 | 25879 ft | 475 kts | 108° |
| 2026-05-07 08:53 | 24.77266 | 53.90119 | 26067 ft | 477 kts | 108° |
| 2026-05-07 08:53 | 24.76321 | 53.93629 | 26240 ft | 480 kts | 106° |
| 2026-05-07 08:53 | 24.75690 | 53.97238 | 26412 ft | 484 kts | 98° |
| 2026-05-07 08:53 | 24.75563 | 54.00950 | 26596 ft | 487 kts | 88° |
| 2026-05-07 08:54 | 24.76022 | 54.04651 | 26774 ft | 490 kts | 78° |
| 2026-05-07 08:54 | 24.76873 | 54.08285 | 26965 ft | 492 kts | 75° |
| 2026-05-07 08:54 | 24.77863 | 54.11901 | 27143 ft | 495 kts | 73° |
| 2026-05-07 08:54 | 24.78926 | 54.15517 | 27339 ft | 497 kts | 72° |
| 2026-05-07 08:55 | 24.80011 | 54.19127 | 27528 ft | 499 kts | 72° |
| 2026-05-07 08:55 | 24.81084 | 54.22718 | 27708 ft | 501 kts | 72° |
| 2026-05-07 08:55 | 24.82159 | 54.26372 | 27898 ft | 503 kts | 72° |
| 2026-05-07 08:55 | 24.83226 | 54.30057 | 28078 ft | 506 kts | 72° |
| 2026-05-07 08:56 | 24.84285 | 54.33760 | 28275 ft | 508 kts | 73° |
| 2026-05-07 08:56 | 24.85338 | 54.37469 | 28478 ft | 510 kts | 73° |
| 2026-05-07 08:56 | 24.86393 | 54.41202 | 28675 ft | 512 kts | 73° |
| 2026-05-07 08:56 | 24.87453 | 54.44956 | 28857 ft | 514 kts | 73° |
| 2026-05-07 08:57 | 24.88516 | 54.48725 | 29056 ft | 516 kts | 73° |
| 2026-05-07 08:57 | 24.89582 | 54.52507 | 29246 ft | 518 kts | 73° |
| 2026-05-07 08:57 | 24.90651 | 54.56300 | 29436 ft | 520 kts | 73° |
| 2026-05-07 08:57 | 24.91727 | 54.60119 | 29625 ft | 523 kts | 73° |
| 2026-05-07 08:58 | 24.92788 | 54.63960 | 29818 ft | 525 kts | 75° |
| 2026-05-07 08:58 | 24.93640 | 54.67870 | 30003 ft | 526 kts | 78° |
| 2026-05-07 08:58 | 24.94430 | 54.71814 | 30189 ft | 528 kts | 78° |
| 2026-05-07 08:58 | 24.95188 | 54.75766 | 30382 ft | 529 kts | 79° |
| 2026-05-07 08:59 | 24.95931 | 54.79728 | 30577 ft | 530 kts | 79° |
| 2026-05-07 08:59 | 24.96674 | 54.83726 | 30772 ft | 532 kts | 79° |
| 2026-05-07 08:59 | 24.97419 | 54.87725 | 30967 ft | 533 kts | 79° |
| 2026-05-07 08:59 | 24.98169 | 54.91735 | 31166 ft | 534 kts | 79° |
| 2026-05-07 09:00 | 24.98920 | 54.95738 | 31361 ft | 536 kts | 78° |
| 2026-05-07 09:00 | 24.99678 | 54.99768 | 31543 ft | 537 kts | 78° |
| 2026-05-07 09:00 | 25.00438 | 55.03814 | 31736 ft | 539 kts | 78° |
| 2026-05-07 09:00 | 25.01196 | 55.07853 | 31911 ft | 540 kts | 78° |
| 2026-05-07 09:01 | 25.01935 | 55.11795 | 32088 ft | 541 kts | 78° |
| 2026-05-07 09:01 | 25.02695 | 55.15854 | 32249 ft | 542 kts | 78° |
| 2026-05-07 09:01 | 25.03458 | 55.19935 | 32393 ft | 544 kts | 78° |
| 2026-05-07 09:01 | 25.04221 | 55.24014 | 32592 ft | 544 kts | 78° |
| 2026-05-07 09:02 | 25.04973 | 55.28036 | 32847 ft | 544 kts | 78° |
| 2026-05-07 09:02 | 25.05739 | 55.32135 | 33093 ft | 543 kts | 78° |
| 2026-05-07 09:02 | 25.06498 | 55.36205 | 33337 ft | 542 kts | 78° |
| 2026-05-07 09:02 | 25.07255 | 55.40272 | 33605 ft | 542 kts | 78° |
| 2026-05-07 09:03 | 25.08013 | 55.44350 | 33861 ft | 541 kts | 78° |
| 2026-05-07 09:03 | 25.08767 | 55.48416 | 34100 ft | 541 kts | 78° |
| 2026-05-07 09:03 | 25.09509 | 55.52426 | 34345 ft | 540 kts | 78° |
| 2026-05-07 09:03 | 25.10260 | 55.56488 | 34608 ft | 540 kts | 78° |
| 2026-05-07 09:04 | 25.11005 | 55.60531 | 34796 ft | 540 kts | 78° |
| 2026-05-07 09:04 | 25.11752 | 55.64594 | 34832 ft | 539 kts | 79° |
| 2026-05-07 09:04 | 25.13239 | 55.72704 | 34832 ft | 539 kts | 79° |
| 2026-05-07 09:05 | 25.14765 | 55.80800 | 34842 ft | 539 kts | 78° |
| 2026-05-07 09:05 | 25.16426 | 55.88875 | 34825 ft | 539 kts | 77° |
| 2026-05-07 09:06 | 25.18109 | 55.96944 | 34818 ft | 539 kts | 77° |
| 2026-05-07 09:06 | 25.19772 | 56.05017 | 34808 ft | 539 kts | 77° |
| 2026-05-07 09:07 | 25.20409 | 56.13224 | 34808 ft | 537 kts | 96° |
| 2026-05-07 09:07 | 25.19808 | 56.17280 | 34809 ft | 534 kts | 107° |
| 2026-05-07 09:07 | 25.18760 | 56.21204 | 34803 ft | 534 kts | 110° |
| 2026-05-07 09:08 | 25.16325 | 56.28942 | 34798 ft | 533 kts | 112° |
| 2026-05-07 09:08 | 25.13764 | 56.36615 | 34801 ft | 533 kts | 112° |
| 2026-05-07 09:09 | 25.11239 | 56.44300 | 34797 ft | 533 kts | 112° |
| 2026-05-07 09:09 | 25.08795 | 56.51963 | 34795 ft | 533 kts | 109° |
| 2026-05-07 09:10 | 25.07029 | 56.59972 | 34797 ft | 535 kts | 104° |
| 2026-05-07 09:10 | 25.05503 | 56.67958 | 34791 ft | 535 kts | 103° |
| 2026-05-07 09:11 | 25.04001 | 56.75992 | 34781 ft | 535 kts | 103° |
| 2026-05-07 09:11 | 25.02481 | 56.84017 | 34789 ft | 535 kts | 104° |
| 2026-05-07 09:12 | 25.00941 | 56.92045 | 34788 ft | 535 kts | 104° |
| 2026-05-07 09:12 | 24.99396 | 57.00057 | 34792 ft | 535 kts | 104° |
| 2026-05-07 09:13 | 24.97843 | 57.08083 | 34804 ft | 535 kts | 104° |
| 2026-05-07 09:13 | 24.96288 | 57.16096 | 34803 ft | 535 kts | 104° |
| 2026-05-07 09:14 | 24.94728 | 57.24115 | 34802 ft | 535 kts | 104° |
| 2026-05-07 09:14 | 24.93164 | 57.32130 | 34804 ft | 535 kts | 104° |
| 2026-05-07 09:15 | 24.91595 | 57.40147 | 34803 ft | 535 kts | 104° |
| 2026-05-07 09:15 | 24.90023 | 57.48156 | 34808 ft | 535 kts | 104° |
| 2026-05-07 09:16 | 24.88447 | 57.56160 | 34808 ft | 535 kts | 104° |
| 2026-05-07 09:16 | 24.86866 | 57.64168 | 34802 ft | 535 kts | 104° |
| 2026-05-07 09:17 | 24.85280 | 57.72175 | 34808 ft | 535 kts | 104° |
| 2026-05-07 09:17 | 24.83707 | 57.80122 | 34803 ft | 535 kts | 103° |
| 2026-05-07 09:18 | 24.82756 | 57.88253 | 34807 ft | 536 kts | 97° |
| 2026-05-07 09:18 | 24.82075 | 57.96446 | 34807 ft | 537 kts | 96° |
| 2026-05-07 09:19 | 24.81441 | 58.04622 | 34807 ft | 537 kts | 96° |
| 2026-05-07 09:19 | 24.80790 | 58.12809 | 34806 ft | 536 kts | 96° |
| 2026-05-07 09:20 | 24.80122 | 58.20983 | 34801 ft | 536 kts | 96° |
| 2026-05-07 09:20 | 24.79445 | 58.29158 | 34800 ft | 537 kts | 96° |
| 2026-05-07 09:21 | 24.78763 | 58.37336 | 34805 ft | 537 kts | 96° |
| 2026-05-07 09:21 | 24.78077 | 58.45514 | 34804 ft | 537 kts | 96° |
| 2026-05-07 09:22 | 24.77387 | 58.53692 | 34803 ft | 537 kts | 96° |
| 2026-05-07 09:22 | 24.76693 | 58.61864 | 34804 ft | 537 kts | 96° |
| 2026-05-07 09:23 | 24.75994 | 58.70043 | 34801 ft | 537 kts | 96° |
| 2026-05-07 09:23 | 24.75290 | 58.78219 | 34798 ft | 537 kts | 96° |
| 2026-05-07 09:24 | 24.74583 | 58.86390 | 34796 ft | 536 kts | 96° |
| 2026-05-07 09:24 | 24.73992 | 58.93173 | 34799 ft | 536 kts | 96° |
| 2026-05-07 09:25 | 24.73277 | 59.01339 | 34800 ft | 536 kts | 96° |
| 2026-05-07 09:25 | 24.72439 | 59.10832 | 34800 ft | 536 kts | 96° |
| 2026-05-07 09:26 | 24.71832 | 59.17678 | 34798 ft | 536 kts | 96° |
| 2026-05-07 09:26 | 24.71106 | 59.25833 | 34799 ft | 536 kts | 96° |
| 2026-05-07 09:27 | 24.70375 | 59.33988 | 34795 ft | 536 kts | 96° |
| 2026-05-07 09:28 | 24.69276 | 59.46162 | 34799 ft | 536 kts | 96° |
| 2026-05-07 09:28 | 24.68534 | 59.54306 | 34796 ft | 535 kts | 96° |
| 2026-05-07 09:29 | 24.67789 | 59.62448 | 34796 ft | 535 kts | 96° |
| 2026-05-07 09:29 | 24.67038 | 59.70601 | 34798 ft | 535 kts | 96° |
| 2026-05-07 09:30 | 24.66284 | 59.78737 | 34795 ft | 535 kts | 96° |
| 2026-05-07 09:30 | 24.65525 | 59.86881 | 34794 ft | 535 kts | 96° |
| 2026-05-07 09:31 | 24.64762 | 59.95019 | 34793 ft | 535 kts | 96° |
| 2026-05-07 09:31 | 24.63994 | 60.03159 | 34789 ft | 535 kts | 96° |
| 2026-05-07 09:32 | 24.63222 | 60.11303 | 34791 ft | 535 kts | 96° |
| 2026-05-07 09:32 | 24.62446 | 60.19435 | 34787 ft | 535 kts | 96° |
| 2026-05-07 09:33 | 24.61666 | 60.27558 | 34786 ft | 535 kts | 96° |
| 2026-05-07 09:33 | 24.60887 | 60.35634 | 34784 ft | 535 kts | 96° |
| 2026-05-07 09:34 | 24.60098 | 60.43761 | 34783 ft | 534 kts | 96° |
| 2026-05-07 09:34 | 24.59306 | 60.51874 | 34784 ft | 534 kts | 96° |
| 2026-05-07 09:35 | 24.58512 | 60.59992 | 34783 ft | 534 kts | 96° |
| 2026-05-07 09:35 | 24.58267 | 60.68151 | 34788 ft | 534 kts | 90° |
| 2026-05-07 09:36 | 24.58252 | 60.76305 | 34781 ft | 534 kts | 89° |
| 2026-05-07 09:36 | 24.58274 | 60.84456 | 34780 ft | 534 kts | 89° |
| 2026-05-07 09:37 | 24.58284 | 60.92613 | 34781 ft | 534 kts | 89° |
| 2026-05-07 09:37 | 24.58278 | 61.00773 | 34784 ft | 534 kts | 90° |
| 2026-05-07 09:38 | 24.58265 | 61.08869 | 34773 ft | 534 kts | 90° |
| 2026-05-07 09:38 | 24.58250 | 61.17022 | 34775 ft | 534 kts | 90° |
| 2026-05-07 09:39 | 24.58226 | 61.25178 | 34772 ft | 534 kts | 90° |
| 2026-05-07 09:39 | 24.58626 | 61.33293 | 34776 ft | 533 kts | 81° |
| 2026-05-07 09:40 | 24.60623 | 61.41092 | 34773 ft | 529 kts | 64° |
| 2026-05-07 09:40 | 24.62403 | 61.44609 | 34771 ft | 526 kts | 53° |
| 2026-05-07 09:40 | 24.64638 | 61.47777 | 34775 ft | 523 kts | 47° |
| 2026-05-07 09:41 | 24.69611 | 61.53592 | 34767 ft | 522 kts | 42° |
| 2026-05-07 09:41 | 24.74785 | 61.59192 | 34767 ft | 522 kts | 41° |
| 2026-05-07 09:42 | 24.79939 | 61.64819 | 34768 ft | 522 kts | 42° |
| 2026-05-07 09:42 | 24.85036 | 61.70506 | 34752 ft | 522 kts | 43° |
| 2026-05-07 09:43 | 24.90122 | 61.76237 | 34751 ft | 523 kts | 43° |
| 2026-05-07 09:43 | 24.95194 | 61.81966 | 34766 ft | 523 kts | 43° |
| 2026-05-07 09:44 | 25.00241 | 61.87669 | 34764 ft | 523 kts | 43° |
| 2026-05-07 09:44 | 25.05321 | 61.93414 | 34757 ft | 523 kts | 43° |
| 2026-05-07 09:45 | 25.10397 | 61.99160 | 34758 ft | 523 kts | 43° |
| 2026-05-07 09:45 | 25.15475 | 62.04916 | 34756 ft | 523 kts | 43° |
| 2026-05-07 09:46 | 25.20555 | 62.10681 | 34753 ft | 524 kts | 43° |
| 2026-05-07 09:46 | 25.25632 | 62.16450 | 34755 ft | 523 kts | 42° |
| 2026-05-07 09:47 | 25.30706 | 62.22224 | 34737 ft | 524 kts | 42° |
| 2026-05-07 09:47 | 25.35776 | 62.28000 | 34733 ft | 524 kts | 42° |
| 2026-05-07 09:48 | 25.40848 | 62.33785 | 34737 ft | 524 kts | 42° |
| 2026-05-07 09:48 | 25.45914 | 62.39570 | 34736 ft | 524 kts | 42° |
| 2026-05-07 09:49 | 25.50985 | 62.45371 | 34732 ft | 524 kts | 42° |
| 2026-05-07 09:49 | 25.56051 | 62.51174 | 34729 ft | 524 kts | 42° |
| 2026-05-07 09:50 | 25.61117 | 62.56982 | 34727 ft | 524 kts | 42° |
| 2026-05-07 09:50 | 25.66183 | 62.62800 | 34719 ft | 525 kts | 42° |
| 2026-05-07 09:51 | 25.71254 | 62.68628 | 34713 ft | 525 kts | 42° |
| 2026-05-07 09:51 | 25.76315 | 62.74455 | 34709 ft | 525 kts | 42° |
| 2026-05-07 09:52 | 25.81377 | 62.80290 | 34710 ft | 525 kts | 42° |
| 2026-05-07 09:52 | 25.86439 | 62.86131 | 34707 ft | 525 kts | 42° |
| 2026-05-07 09:53 | 25.91504 | 62.91985 | 34708 ft | 525 kts | 42° |
| 2026-05-07 09:53 | 25.96529 | 62.97800 | 34714 ft | 525 kts | 42° |
| 2026-05-07 09:54 | 26.01588 | 63.03662 | 34714 ft | 525 kts | 42° |
| 2026-05-07 09:54 | 26.06639 | 63.09524 | 34720 ft | 525 kts | 42° |
| 2026-05-07 09:55 | 26.11700 | 63.15404 | 34723 ft | 525 kts | 41° |
| 2026-05-07 09:55 | 26.16749 | 63.21276 | 34727 ft | 525 kts | 41° |
| 2026-05-07 09:56 | 26.21801 | 63.27162 | 34733 ft | 525 kts | 41° |
| 2026-05-07 09:56 | 26.26840 | 63.33041 | 34742 ft | 525 kts | 41° |
| 2026-05-07 09:57 | 26.31881 | 63.38931 | 34747 ft | 525 kts | 41° |
| 2026-05-07 09:57 | 26.36922 | 63.44828 | 34757 ft | 525 kts | 41° |
| 2026-05-07 09:58 | 26.41953 | 63.50721 | 34761 ft | 525 kts | 41° |
| 2026-05-07 09:58 | 26.46985 | 63.56626 | 34762 ft | 525 kts | 41° |
| 2026-05-07 09:59 | 26.52013 | 63.62530 | 34761 ft | 524 kts | 41° |
| 2026-05-07 09:59 | 26.57040 | 63.68438 | 34773 ft | 525 kts | 41° |
| 2026-05-07 10:00 | 26.62056 | 63.74345 | 34767 ft | 524 kts | 41° |
| 2026-05-07 10:00 | 26.67076 | 63.80265 | 34777 ft | 524 kts | 41° |
| 2026-05-07 10:01 | 26.72094 | 63.86191 | 34778 ft | 524 kts | 41° |
| 2026-05-07 10:01 | 26.77104 | 63.92119 | 34785 ft | 524 kts | 41° |
| 2026-05-07 10:02 | 26.82112 | 63.98049 | 34787 ft | 524 kts | 41° |
| 2026-05-07 10:02 | 26.87086 | 64.03945 | 34790 ft | 524 kts | 41° |
| 2026-05-07 10:03 | 26.92022 | 64.09968 | 34793 ft | 528 kts | 46° |
| 2026-05-07 10:03 | 26.95692 | 64.17188 | 34795 ft | 542 kts | 65° |
| 2026-05-07 10:04 | 26.97684 | 64.25379 | 34801 ft | 548 kts | 75° |
| 2026-05-07 10:04 | 26.99028 | 64.33790 | 34799 ft | 549 kts | 77° |
| 2026-05-07 10:05 | 27.00321 | 64.42230 | 34801 ft | 549 kts | 76° |
| 2026-05-07 10:05 | 27.01707 | 64.50640 | 34804 ft | 549 kts | 76° |
| 2026-05-07 10:06 | 27.03148 | 64.59042 | 34809 ft | 549 kts | 75° |
| 2026-05-07 10:06 | 27.04599 | 64.67444 | 34802 ft | 549 kts | 75° |
| 2026-05-07 10:07 | 27.06043 | 64.75862 | 34804 ft | 549 kts | 75° |
| 2026-05-07 10:07 | 27.07478 | 64.84281 | 34802 ft | 549 kts | 75° |
| 2026-05-07 10:08 | 27.08906 | 64.92701 | 34801 ft | 550 kts | 75° |
| 2026-05-07 10:08 | 27.10331 | 65.01128 | 34803 ft | 550 kts | 75° |
| 2026-05-07 10:09 | 27.11752 | 65.09564 | 34802 ft | 550 kts | 75° |
| 2026-05-07 10:09 | 27.13168 | 65.18006 | 34800 ft | 550 kts | 75° |
| 2026-05-07 10:10 | 27.14579 | 65.26452 | 34800 ft | 551 kts | 75° |
| 2026-05-07 10:10 | 27.15988 | 65.34908 | 34800 ft | 551 kts | 75° |
| 2026-05-07 10:11 | 27.17388 | 65.43356 | 34800 ft | 551 kts | 75° |
| 2026-05-07 10:11 | 27.18786 | 65.51821 | 34793 ft | 551 kts | 75° |
| 2026-05-07 10:12 | 27.20176 | 65.60268 | 34797 ft | 550 kts | 75° |
| 2026-05-07 10:12 | 27.21553 | 65.68682 | 34791 ft | 551 kts | 75° |
| 2026-05-07 10:13 | 27.22935 | 65.77141 | 34784 ft | 551 kts | 75° |
| 2026-05-07 10:13 | 27.24320 | 65.85661 | 34783 ft | 550 kts | 75° |
| 2026-05-07 10:14 | 27.25465 | 65.92693 | 34782 ft | 550 kts | 75° |
| 2026-05-07 10:14 | 27.26832 | 66.01155 | 34777 ft | 550 kts | 75° |
| 2026-05-07 10:15 | 27.28408 | 66.10992 | 34775 ft | 550 kts | 75° |
| 2026-05-07 10:15 | 27.29761 | 66.19459 | 34774 ft | 550 kts | 75° |
| 2026-05-07 10:16 | 27.30891 | 66.26554 | 34771 ft | 550 kts | 75° |
| 2026-05-07 10:16 | 27.32232 | 66.35019 | 34770 ft | 550 kts | 75° |
| 2026-05-07 10:17 | 27.33573 | 66.43494 | 34770 ft | 550 kts | 75° |
| 2026-05-07 10:17 | 27.34899 | 66.51901 | 34767 ft | 550 kts | 75° |
| 2026-05-07 10:18 | 27.36237 | 66.60435 | 34769 ft | 550 kts | 75° |
| 2026-05-07 10:18 | 27.37549 | 66.68867 | 34749 ft | 551 kts | 75° |
| 2026-05-07 10:19 | 27.38870 | 66.77354 | 34753 ft | 551 kts | 75° |
| 2026-05-07 10:19 | 27.40178 | 66.85842 | 34747 ft | 551 kts | 75° |
| 2026-05-07 10:20 | 27.41489 | 66.94345 | 34746 ft | 551 kts | 75° |
| 2026-05-07 10:20 | 27.42804 | 67.02843 | 34731 ft | 551 kts | 75° |
| 2026-05-07 10:21 | 27.44105 | 67.11361 | 34721 ft | 552 kts | 75° |
| 2026-05-07 10:21 | 27.45408 | 67.19867 | 34694 ft | 552 kts | 75° |
| 2026-05-07 10:22 | 27.46764 | 67.28365 | 34684 ft | 551 kts | 73° |
| 2026-05-07 10:22 | 27.48240 | 67.36837 | 34669 ft | 551 kts | 73° |
| 2026-05-07 10:23 | 27.49731 | 67.45291 | 34653 ft | 550 kts | 73° |
| 2026-05-07 10:23 | 27.51208 | 67.53753 | 34644 ft | 550 kts | 73° |
| 2026-05-07 10:24 | 27.52664 | 67.62216 | 34629 ft | 551 kts | 73° |
| 2026-05-07 10:24 | 27.54111 | 67.70689 | 34625 ft | 550 kts | 73° |
| 2026-05-07 10:25 | 27.55551 | 67.79157 | 34623 ft | 550 kts | 73° |
| 2026-05-07 10:25 | 27.56987 | 67.87620 | 34621 ft | 550 kts | 73° |
| 2026-05-07 10:26 | 27.58419 | 67.96094 | 34622 ft | 550 kts | 73° |
| 2026-05-07 10:26 | 27.59846 | 68.04578 | 34622 ft | 550 kts | 73° |
| 2026-05-07 10:27 | 27.61267 | 68.13050 | 34622 ft | 551 kts | 73° |
| 2026-05-07 10:27 | 27.62685 | 68.21537 | 34606 ft | 550 kts | 73° |
| 2026-05-07 10:28 | 27.64091 | 68.29994 | 34624 ft | 547 kts | 73° |
| 2026-05-07 10:28 | 27.65485 | 68.38417 | 34629 ft | 547 kts | 73° |
| 2026-05-07 10:29 | 27.66877 | 68.46850 | 34628 ft | 547 kts | 73° |
| 2026-05-07 10:29 | 27.68255 | 68.55226 | 34625 ft | 547 kts | 73° |
| 2026-05-07 10:30 | 27.70325 | 68.67877 | 34629 ft | 547 kts | 73° |
| 2026-05-07 10:30 | 27.71724 | 68.76301 | 34619 ft | 544 kts | 71° |
| 2026-05-07 10:31 | 27.74269 | 68.84198 | 34627 ft | 531 kts | 58° |
| 2026-05-07 10:31 | 27.77476 | 68.91664 | 34629 ft | 528 kts | 56° |
| 2026-05-07 10:32 | 27.80812 | 68.99046 | 34632 ft | 527 kts | 55° |
| 2026-05-07 10:32 | 27.84155 | 69.06430 | 34636 ft | 528 kts | 55° |
| 2026-05-07 10:33 | 27.87460 | 69.13833 | 34637 ft | 528 kts | 56° |
| 2026-05-07 10:33 | 27.90744 | 69.21254 | 34637 ft | 528 kts | 56° |
| 2026-05-07 10:34 | 27.94010 | 69.28686 | 34640 ft | 528 kts | 56° |
| 2026-05-07 10:34 | 27.97263 | 69.36135 | 34646 ft | 528 kts | 56° |
| 2026-05-07 10:35 | 28.00511 | 69.43580 | 34642 ft | 528 kts | 56° |
| 2026-05-07 10:35 | 28.03756 | 69.51030 | 34647 ft | 527 kts | 56° |
| 2026-05-07 10:36 | 28.06996 | 69.58476 | 34644 ft | 527 kts | 56° |
| 2026-05-07 10:36 | 28.10231 | 69.65926 | 34646 ft | 527 kts | 56° |
| 2026-05-07 10:37 | 28.13439 | 69.73326 | 34645 ft | 526 kts | 56° |
| 2026-05-07 10:37 | 28.16657 | 69.80765 | 34646 ft | 526 kts | 56° |
| 2026-05-07 10:38 | 28.19874 | 69.88215 | 34654 ft | 526 kts | 56° |
| 2026-05-07 10:38 | 28.23084 | 69.95662 | 34651 ft | 526 kts | 56° |
| 2026-05-07 10:39 | 28.26289 | 70.03112 | 34655 ft | 525 kts | 56° |
| 2026-05-07 10:39 | 28.29489 | 70.10562 | 34653 ft | 525 kts | 56° |
| 2026-05-07 10:40 | 28.32682 | 70.18012 | 34658 ft | 525 kts | 56° |
| 2026-05-07 10:40 | 28.35953 | 70.25392 | 34664 ft | 519 kts | 51° |
| 2026-05-07 10:41 | 28.37992 | 70.28728 | 34654 ft | 508 kts | 43° |
| 2026-05-07 10:41 | 28.40269 | 70.31782 | 34656 ft | 505 kts | 41° |
| 2026-05-07 10:41 | 28.44988 | 70.37670 | 34661 ft | 503 kts | 39° |
| 2026-05-07 10:42 | 28.49785 | 70.43449 | 34662 ft | 502 kts | 38° |
| 2026-05-07 10:42 | 28.54537 | 70.49204 | 34663 ft | 503 kts | 39° |
| 2026-05-07 10:43 | 28.59301 | 70.55033 | 34664 ft | 503 kts | 39° |
| 2026-05-07 10:43 | 28.64046 | 70.60872 | 34662 ft | 503 kts | 39° |
| 2026-05-07 10:44 | 28.68791 | 70.66720 | 34663 ft | 502 kts | 39° |
| 2026-05-07 10:44 | 28.73533 | 70.72572 | 34668 ft | 502 kts | 39° |
| 2026-05-07 10:45 | 28.78269 | 70.78422 | 34666 ft | 502 kts | 39° |
| 2026-05-07 10:45 | 28.83004 | 70.84279 | 34667 ft | 502 kts | 39° |
| 2026-05-07 10:46 | 28.87735 | 70.90139 | 34664 ft | 502 kts | 39° |
| 2026-05-07 10:46 | 28.92464 | 70.96005 | 34667 ft | 502 kts | 39° |
| 2026-05-07 10:47 | 28.97187 | 71.01874 | 34667 ft | 502 kts | 39° |
| 2026-05-07 10:47 | 29.01907 | 71.07746 | 34668 ft | 502 kts | 39° |
| 2026-05-07 10:48 | 29.06625 | 71.13625 | 34673 ft | 502 kts | 39° |
| 2026-05-07 10:48 | 29.11344 | 71.19513 | 34674 ft | 502 kts | 39° |
| 2026-05-07 10:49 | 29.16062 | 71.25409 | 34674 ft | 502 kts | 39° |
| 2026-05-07 10:49 | 29.20771 | 71.31303 | 34673 ft | 502 kts | 39° |
| 2026-05-07 10:50 | 29.25475 | 71.37192 | 34677 ft | 502 kts | 39° |
| 2026-05-07 10:50 | 29.30182 | 71.43103 | 34676 ft | 502 kts | 40° |
| 2026-05-07 10:51 | 29.34842 | 71.49060 | 34678 ft | 502 kts | 40° |
| 2026-05-07 10:51 | 29.39476 | 71.55056 | 34678 ft | 502 kts | 40° |
| 2026-05-07 10:52 | 29.44106 | 71.61051 | 34678 ft | 502 kts | 40° |
| 2026-05-07 10:52 | 29.48703 | 71.66996 | 34677 ft | 501 kts | 40° |
| 2026-05-07 10:53 | 29.53332 | 71.72983 | 34680 ft | 501 kts | 40° |
| 2026-05-07 10:53 | 29.57954 | 71.78968 | 34680 ft | 501 kts | 41° |
| 2026-05-07 10:54 | 29.62573 | 71.84959 | 34680 ft | 500 kts | 41° |
| 2026-05-07 10:54 | 29.67183 | 71.90946 | 34679 ft | 500 kts | 41° |
| 2026-05-07 10:55 | 29.71787 | 71.96936 | 34682 ft | 500 kts | 41° |
| 2026-05-07 10:55 | 29.76387 | 72.02930 | 34684 ft | 499 kts | 41° |
| 2026-05-07 10:56 | 29.80981 | 72.08926 | 34674 ft | 499 kts | 41° |
| 2026-05-07 10:56 | 29.85567 | 72.14920 | 34676 ft | 499 kts | 41° |
| 2026-05-07 10:57 | 29.90148 | 72.20916 | 34683 ft | 498 kts | 41° |
| 2026-05-07 10:57 | 29.94728 | 72.26916 | 34680 ft | 498 kts | 41° |
| 2026-05-07 10:58 | 29.99297 | 72.32910 | 34682 ft | 498 kts | 41° |
| 2026-05-07 10:58 | 30.03861 | 72.38913 | 34681 ft | 497 kts | 41° |
| 2026-05-07 10:59 | 30.08417 | 72.44912 | 34687 ft | 497 kts | 41° |
| 2026-05-07 10:59 | 30.12971 | 72.50910 | 34687 ft | 496 kts | 41° |
| 2026-05-07 11:00 | 30.17520 | 72.56914 | 34689 ft | 496 kts | 41° |
| 2026-05-07 11:00 | 30.22047 | 72.62920 | 34688 ft | 496 kts | 41° |
| 2026-05-07 11:01 | 30.26544 | 72.68980 | 34688 ft | 496 kts | 42° |
| 2026-05-07 11:01 | 30.31014 | 72.75050 | 34696 ft | 496 kts | 42° |
| 2026-05-07 11:02 | 30.34729 | 72.80103 | 34699 ft | 495 kts | 42° |
| 2026-05-07 11:02 | 30.39198 | 72.86174 | 34703 ft | 495 kts | 42° |
| 2026-05-07 11:03 | 30.43664 | 72.92241 | 34708 ft | 495 kts | 42° |
| 2026-05-07 11:03 | 30.48128 | 72.98327 | 34706 ft | 495 kts | 42° |
| 2026-05-07 11:04 | 30.52575 | 73.04402 | 34711 ft | 494 kts | 42° |
| 2026-05-07 11:04 | 30.57020 | 73.10482 | 34704 ft | 494 kts | 43° |
| 2026-05-07 11:05 | 30.59228 | 73.13508 | 34291 ft | 489 kts | 42° |
| 2026-05-07 11:05 | 30.61442 | 73.16525 | 33415 ft | 492 kts | 43° |
| 2026-05-07 11:05 | 30.63669 | 73.19554 | 32425 ft | 495 kts | 43° |
| 2026-05-07 11:05 | 30.65905 | 73.22606 | 31432 ft | 498 kts | 44° |
| 2026-05-07 11:06 | 30.68154 | 73.25680 | 30455 ft | 500 kts | 44° |
| 2026-05-07 11:06 | 30.70421 | 73.28758 | 29422 ft | 502 kts | 44° |
| 2026-05-07 11:06 | 30.72696 | 73.31834 | 28434 ft | 501 kts | 44° |
| 2026-05-07 11:06 | 30.74957 | 73.34894 | 27683 ft | 496 kts | 44° |
| 2026-05-07 11:07 | 30.77190 | 73.37912 | 26993 ft | 490 kts | 44° |
| 2026-05-07 11:07 | 30.79396 | 73.40893 | 26305 ft | 484 kts | 44° |
| 2026-05-07 11:07 | 30.81585 | 73.43849 | 25624 ft | 479 kts | 44° |
| 2026-05-07 11:07 | 30.83749 | 73.46772 | 24937 ft | 475 kts | 44° |
| 2026-05-07 11:08 | 30.85894 | 73.49673 | 24276 ft | 470 kts | 44° |
| 2026-05-07 11:08 | 30.88022 | 73.52550 | 23606 ft | 466 kts | 44° |
| 2026-05-07 11:08 | 30.90122 | 73.55391 | 22881 ft | 462 kts | 44° |
| 2026-05-07 11:08 | 30.92207 | 73.58208 | 22187 ft | 456 kts | 44° |
| 2026-05-07 11:09 | 30.94263 | 73.60988 | 21525 ft | 450 kts | 44° |
| 2026-05-07 11:09 | 30.96292 | 73.63733 | 20866 ft | 444 kts | 45° |
| 2026-05-07 11:09 | 30.98299 | 73.66452 | 20223 ft | 439 kts | 45° |
| 2026-05-07 11:09 | 31.00275 | 73.69129 | 19566 ft | 434 kts | 45° |
| 2026-05-07 11:10 | 31.02236 | 73.71788 | 18911 ft | 431 kts | 46° |
| 2026-05-07 11:10 | 31.04156 | 73.74396 | 18258 ft | 427 kts | 46° |
| 2026-05-07 11:10 | 31.06109 | 73.77051 | 17525 ft | 424 kts | 47° |
| 2026-05-07 11:10 | 31.07988 | 73.79618 | 16856 ft | 420 kts | 47° |
| 2026-05-07 11:11 | 31.09873 | 73.82198 | 16181 ft | 416 kts | 47° |
| 2026-05-07 11:11 | 31.11745 | 73.84757 | 15508 ft | 412 kts | 47° |
| 2026-05-07 11:11 | 31.13598 | 73.87289 | 14841 ft | 408 kts | 47° |
| 2026-05-07 11:11 | 31.15433 | 73.89798 | 14178 ft | 405 kts | 47° |
| 2026-05-07 11:12 | 31.17261 | 73.92296 | 13503 ft | 403 kts | 47° |
| 2026-05-07 11:12 | 31.19072 | 73.94772 | 12778 ft | 399 kts | 47° |
| 2026-05-07 11:12 | 31.20862 | 73.97219 | 12109 ft | 395 kts | 47° |
| 2026-05-07 11:12 | 31.22636 | 73.99646 | 11451 ft | 390 kts | 47° |
| 2026-05-07 11:13 | 31.24432 | 74.01994 | 10794 ft | 385 kts | 42° |
| 2026-05-07 11:13 | 31.26545 | 74.03776 | 10583 ft | 366 kts | 28° |
| 2026-05-07 11:13 | 31.28735 | 74.05139 | 10463 ft | 348 kts | 25° |
| 2026-05-07 11:13 | 31.30845 | 74.06379 | 10339 ft | 332 kts | 25° |
| 2026-05-07 11:14 | 31.32863 | 74.07557 | 10215 ft | 317 kts | 24° |
| 2026-05-07 11:14 | 31.34797 | 74.08683 | 10096 ft | 304 kts | 24° |
| 2026-05-07 11:14 | 31.36653 | 74.09768 | 9975 ft | 292 kts | 25° |
| 2026-05-07 11:14 | 31.38437 | 74.10819 | 9848 ft | 282 kts | 25° |
| 2026-05-07 11:15 | 31.40211 | 74.11873 | 9711 ft | 291 kts | 25° |
| 2026-05-07 11:15 | 31.42029 | 74.12948 | 9482 ft | 294 kts | 25° |
| 2026-05-07 11:15 | 31.43858 | 74.14029 | 9117 ft | 294 kts | 25° |
| 2026-05-07 11:15 | 31.45679 | 74.15109 | 8701 ft | 293 kts | 25° |
| 2026-05-07 11:16 | 31.47484 | 74.16189 | 8353 ft | 290 kts | 26° |
| 2026-05-07 11:16 | 31.49264 | 74.17263 | 8021 ft | 287 kts | 26° |
| 2026-05-07 11:16 | 31.51042 | 74.18322 | 7693 ft | 286 kts | 26° |
| 2026-05-07 11:16 | 31.52814 | 74.19370 | 7364 ft | 284 kts | 26° |
| 2026-05-07 11:17 | 31.54573 | 74.20411 | 7044 ft | 283 kts | 26° |
| 2026-05-07 11:17 | 31.56328 | 74.21453 | 6705 ft | 281 kts | 26° |
| 2026-05-07 11:17 | 31.58040 | 74.22477 | 6403 ft | 280 kts | 26° |
| 2026-05-07 11:17 | 31.59769 | 74.23507 | 6070 ft | 278 kts | 26° |
| 2026-05-07 11:18 | 31.61466 | 74.24520 | 5918 ft | 269 kts | 26° |
| 2026-05-07 11:18 | 31.63099 | 74.25502 | 5771 ft | 259 kts | 27° |
| 2026-05-07 11:18 | 31.64690 | 74.26457 | 5524 ft | 254 kts | 27° |
| 2026-05-07 11:18 | 31.66253 | 74.27396 | 5284 ft | 252 kts | 27° |
| 2026-05-07 11:19 | 31.67808 | 74.28328 | 5035 ft | 251 kts | 27° |
| 2026-05-07 11:19 | 31.69360 | 74.29261 | 4783 ft | 250 kts | 27° |
| 2026-05-07 11:19 | 31.70855 | 74.30278 | 4522 ft | 248 kts | 38° |
| 2026-05-07 11:19 | 31.71913 | 74.31852 | 4284 ft | 248 kts | 67° |
| 2026-05-07 11:20 | 31.72156 | 74.33405 | 4086 ft | 249 kts | 91° |
| 2026-05-07 11:20 | 31.71852 | 74.35051 | 3888 ft | 250 kts | 108° |
| 2026-05-07 11:20 | 31.71235 | 74.36905 | 3747 ft | 236 kts | 111° |
| 2026-05-07 11:20 | 31.70614 | 74.38627 | 3610 ft | 222 kts | 113° |
| 2026-05-07 11:21 | 31.69673 | 74.40002 | 3503 ft | 215 kts | 146° |
| 2026-05-07 11:21 | 31.68342 | 74.40661 | 3441 ft | 202 kts | 163° |
| 2026-05-07 11:21 | 31.66969 | 74.40777 | 3336 ft | 195 kts | 181° |
| 2026-05-07 11:21 | 31.65620 | 74.40672 | 3066 ft | 195 kts | 182° |
| 2026-05-07 11:22 | 31.64263 | 74.40661 | 2799 ft | 197 kts | 177° |
| 2026-05-07 11:22 | 31.62890 | 74.40655 | 2518 ft | 198 kts | 179° |
| 2026-05-07 11:22 | 31.61522 | 74.40615 | 2260 ft | 191 kts | 180° |
| 2026-05-07 11:22 | 31.60249 | 74.40593 | 2015 ft | 181 kts | 179° |
| 2026-05-07 11:23 | 31.59027 | 74.40576 | 1779 ft | 165 kts | 178° |
| 2026-05-07 11:23 | 31.57893 | 74.40558 | 1571 ft | 160 kts | 178° |
| 2026-05-07 11:23 | 31.56813 | 74.40546 | 1300 ft | 154 kts | 165° |
| 2026-05-07 11:23 | 31.55777 | 74.40475 | 1109 ft | 141 kts | 177° |
| 2026-05-07 11:24 | 31.54826 | 74.40479 | 952 ft | 140 kts | 174° |
| 2026-05-07 11:24 | 31.53859 | 74.40490 | 798 ft | 138 kts | 179° |
| 2026-05-07 11:24 | 31.52934 | 74.40476 | 728 ft | 121 kts | 181° |
| 2026-05-07 11:24 | 31.52321 | 74.40461 | 726 ft | 64 kts | 181° |
| 2026-05-07 11:25 | 31.51932 | 74.40456 | 725 ft | 51 kts | 181° |
| 2026-05-07 11:25 | 31.51650 | 74.40448 | 724 ft | 33 kts | 180° |
| 2026-05-07 11:25 | 31.51518 | 74.40482 | 726 ft | 7 kts | 110° |
| 2026-05-07 11:25 | 31.51519 | 74.40545 | 726 ft | 9 kts | 88° |
| 2026-05-07 11:26 | 31.51526 | 74.40626 | 725 ft | 10 kts | 63° |
| 2026-05-07 11:26 | 31.51593 | 74.40657 | 724 ft | 12 kts | 8° |
| 2026-05-07 11:26 | 31.51682 | 74.40667 | 725 ft | 14 kts | 1° |
| 2026-05-07 11:26 | 31.51785 | 74.40666 | 726 ft | 16 kts | 358° |
| 2026-05-07 11:27 | 31.51903 | 74.40663 | 726 ft | 18 kts | 360° |
| 2026-05-07 11:27 | 31.52035 | 74.40663 | 726 ft | 20 kts | 359° |
| 2026-05-07 11:27 | 31.52180 | 74.40668 | 725 ft | 22 kts | 0° |
| 2026-05-07 11:27 | 31.52336 | 74.40671 | 725 ft | 23 kts | 2° |
| 2026-05-07 11:28 | 31.52406 | 74.40757 | 727 ft | 16 kts | 91° |
| 2026-05-07 11:28 | 31.52360 | 74.40841 | 727 ft | 11 kts | 165° |
| 2026-05-07 11:28 | 31.52278 | 74.40848 | 726 ft | 12 kts | 171° |
| 2026-05-07 11:28 | 31.52247 | 74.40908 | 728 ft | 9 kts | 102° |
| 2026-05-07 11:29 | 31.52230 | 74.40941 | 728 ft | 4 kts | 137° |
| 2026-05-07 11:29 | 31.52225 | 74.40945 | 726 ft | 0 kts | 140° |
| 2026-05-07 11:29 | 31.52222 | 74.40949 | 726 ft | 0 kts | 140° |
| 2026-05-07 11:30 | 31.52220 | 74.40950 | 728 ft | 0 kts | 141° |